Terminal Aerodrome Forecast
Issued by NWS

Home | Current Version | Previous Version | Text Only | Print | Product List | Glossary On
Versions: 1 2 3 4 5 6 7 8 9 10 11 12 13 14 15
000
FTUS43 KMPX 191139
TAFRWF
TAF
KRWF 191139Z 1912/2012 22010KT 4SM BR BKN015
     FM191400 30014G22KT P6SM BKN015
     FM191700 32018G26KT P6SM SCT030 BKN050
     FM200200 32011KT P6SM BKN100
     FM201000 31015G23KT P6SM BKN060=

USA.gov is the U.S. government's official web portal to all federal, state and local government web resources and services.